sensor_id;sensor_type;location;lat;lon;timestamp;temperature;humidity
22917;DHT22;11624;53.250;7.456;2023-09-19T00:00:39;22.12;57.28
22917;DHT22;11624;53.250;7.456;2023-09-19T00:03:09;22.10;57.17
22917;DHT22;11624;53.250;7.456;2023-09-19T00:05:39;22.05;57.11
22917;DHT22;11624;53.250;7.456;2023-09-19T00:08:12;21.92;57.26
22917;DHT22;11624;53.250;7.456;2023-09-19T00:10:43;21.83;57.08
22917;DHT22;11624;53.250;7.456;2023-09-19T00:13:11;21.73;57.56
22917;DHT22;11624;53.250;7.456;2023-09-19T00:15:44;21.74;57.48
22917;DHT22;11624;53.250;7.456;2023-09-19T00:18:17;21.70;57.45
22917;DHT22;11624;53.250;7.456;2023-09-19T00:20:46;21.69;57.52
22917;DHT22;11624;53.250;7.456;2023-09-19T00:23:14;21.66;57.62
22917;DHT22;11624;53.250;7.456;2023-09-19T00:25:44;21.64;57.60
22917;DHT22;11624;53.250;7.456;2023-09-19T00:28:12;21.62;57.68
22917;DHT22;11624;53.250;7.456;2023-09-19T00:30:43;21.60;57.74
22917;DHT22;11624;53.250;7.456;2023-09-19T00:33:11;21.63;57.60
22917;DHT22;11624;53.250;7.456;2023-09-19T00:35:47;21.61;57.14
22917;DHT22;11624;53.250;7.456;2023-09-19T00:38:15;21.62;57.41
22917;DHT22;11624;53.250;7.456;2023-09-19T00:40:45;21.59;57.31
22917;DHT22;11624;53.250;7.456;2023-09-19T00:43:14;21.42;57.75
22917;DHT22;11624;53.250;7.456;2023-09-19T00:45:45;21.43;57.65
22917;DHT22;11624;53.250;7.456;2023-09-19T00:48:15;21.39;57.64
22917;DHT22;11624;53.250;7.456;2023-09-19T00:50:46;21.35;57.71
22917;DHT22;11624;53.250;7.456;2023-09-19T00:53:19;21.34;57.61
22917;DHT22;11624;53.250;7.456;2023-09-19T00:55:49;21.25;57.65
22917;DHT22;11624;53.250;7.456;2023-09-19T00:58:19;21.24;57.81
22917;DHT22;11624;53.250;7.456;2023-09-19T01:00:48;21.21;57.77
22917;DHT22;11624;53.250;7.456;2023-09-19T01:03:17;21.18;57.71
22917;DHT22;11624;53.250;7.456;2023-09-19T01:05:45;21.17;57.67
22917;DHT22;11624;53.250;7.456;2023-09-19T01:08:13;21.10;57.67
22917;DHT22;11624;53.250;7.456;2023-09-19T01:10:58;21.02;57.38
22917;DHT22;11624;53.250;7.456;2023-09-19T01:13:31;21.00;57.58
22917;DHT22;11624;53.250;7.456;2023-09-19T01:16:07;20.94;57.63
22917;DHT22;11624;53.250;7.456;2023-09-19T01:18:47;20.92;57.33
22917;DHT22;11624;53.250;7.456;2023-09-19T01:21:23;20.85;57.27
22917;DHT22;11624;53.250;7.456;2023-09-19T01:24:21;20.78;57.06
22917;DHT22;11624;53.250;7.456;2023-09-19T01:27:12;20.80;56.72
22917;DHT22;11624;53.250;7.456;2023-09-19T01:29:46;20.76;56.76
22917;DHT22;11624;53.250;7.456;2023-09-19T01:32:18;20.77;56.46
22917;DHT22;11624;53.250;7.456;2023-09-19T01:34:51;20.72;56.39
22917;DHT22;11624;53.250;7.456;2023-09-19T01:37:21;20.65;56.46
22917;DHT22;11624;53.250;7.456;2023-09-19T01:39:55;20.71;56.04
22917;DHT22;11624;53.250;7.456;2023-09-19T01:42:30;20.68;56.02
22917;DHT22;11624;53.250;7.456;2023-09-19T01:45:03;20.73;55.74
22917;DHT22;11624;53.250;7.456;2023-09-19T01:47:39;20.68;55.86
22917;DHT22;11624;53.250;7.456;2023-09-19T01:50:16;20.59;56.26
22917;DHT22;11624;53.250;7.456;2023-09-19T01:52:49;20.59;56.21
22917;DHT22;11624;53.250;7.456;2023-09-19T01:55:20;20.54;56.42
22917;DHT22;11624;53.250;7.456;2023-09-19T01:57:54;20.51;56.15
22917;DHT22;11624;53.250;7.456;2023-09-19T02:00:28;20.45;56.36
22917;DHT22;11624;53.250;7.456;2023-09-19T02:02:59;20.40;56.27
22917;DHT22;11624;53.250;7.456;2023-09-19T02:05:27;20.43;56.38
22917;DHT22;11624;53.250;7.456;2023-09-19T02:07:56;20.37;56.52
22917;DHT22;11624;53.250;7.456;2023-09-19T02:10:25;20.31;56.77
22917;DHT22;11624;53.250;7.456;2023-09-19T02:12:53;20.30;56.72
22917;DHT22;11624;53.250;7.456;2023-09-19T02:15:21;20.29;56.77
22917;DHT22;11624;53.250;7.456;2023-09-19T02:17:50;20.20;56.95
22917;DHT22;11624;53.250;7.456;2023-09-19T02:20:18;20.24;56.84
22917;DHT22;11624;53.250;7.456;2023-09-19T02:22:47;20.19;56.87
22917;DHT22;11624;53.250;7.456;2023-09-19T02:25:17;20.16;56.87
22917;DHT22;11624;53.250;7.456;2023-09-19T02:27:46;20.19;56.76
22917;DHT22;11624;53.250;7.456;2023-09-19T02:30:15;20.12;56.86
22917;DHT22;11624;53.250;7.456;2023-09-19T02:32:47;20.10;56.80
22917;DHT22;11624;53.250;7.456;2023-09-19T02:35:18;20.10;56.81
22917;DHT22;11624;53.250;7.456;2023-09-19T02:37:46;20.04;56.79
22917;DHT22;11624;53.250;7.456;2023-09-19T02:40:15;20.09;56.68
22917;DHT22;11624;53.250;7.456;2023-09-19T02:42:47;20.03;56.71
22917;DHT22;11624;53.250;7.456;2023-09-19T02:45:16;19.97;56.86
22917;DHT22;11624;53.250;7.456;2023-09-19T02:47:48;20.00;56.75
22917;DHT22;11624;53.250;7.456;2023-09-19T02:50:18;19.95;56.89
22917;DHT22;11624;53.250;7.456;2023-09-19T02:52:47;19.94;56.87
22917;DHT22;11624;53.250;7.456;2023-09-19T02:55:17;19.89;57.01
22917;DHT22;11624;53.250;7.456;2023-09-19T02:57:47;19.88;56.99
22917;DHT22;11624;53.250;7.456;2023-09-19T03:00:16;19.87;57.04
22917;DHT22;11624;53.250;7.456;2023-09-19T03:02:48;19.87;57.06
22917;DHT22;11624;53.250;7.456;2023-09-19T03:05:18;19.84;57.07
22917;DHT22;11624;53.250;7.456;2023-09-19T03:07:48;19.85;57.11
22917;DHT22;11624;53.250;7.456;2023-09-19T03:10:19;19.82;57.22
22917;DHT22;11624;53.250;7.456;2023-09-19T03:12:48;19.82;57.22
22917;DHT22;11624;53.250;7.456;2023-09-19T03:15:17;19.85;57.10
22917;DHT22;11624;53.250;7.456;2023-09-19T03:17:48;19.86;57.13
22917;DHT22;11624;53.250;7.456;2023-09-19T03:20:21;19.79;57.35
22917;DHT22;11624;53.250;7.456;2023-09-19T03:22:50;19.80;57.39
22917;DHT22;11624;53.250;7.456;2023-09-19T03:25:20;19.81;57.42
22917;DHT22;11624;53.250;7.456;2023-09-19T03:27:51;19.83;57.33
22917;DHT22;11624;53.250;7.456;2023-09-19T03:30:21;19.87;57.24
22917;DHT22;11624;53.250;7.456;2023-09-19T03:32:49;19.88;57.29
22917;DHT22;11624;53.250;7.456;2023-09-19T03:35:18;19.86;57.35
22917;DHT22;11624;53.250;7.456;2023-09-19T03:37:49;19.82;57.48
22917;DHT22;11624;53.250;7.456;2023-09-19T03:40:19;19.84;57.35
22917;DHT22;11624;53.250;7.456;2023-09-19T03:42:49;19.81;57.48
22917;DHT22;11624;53.250;7.456;2023-09-19T03:45:17;19.88;57.21
22917;DHT22;11624;53.250;7.456;2023-09-19T03:47:52;19.85;57.17
22917;DHT22;11624;53.250;7.456;2023-09-19T03:50:22;19.84;57.21
22917;DHT22;11624;53.250;7.456;2023-09-19T03:52:57;19.86;56.93
22917;DHT22;11624;53.250;7.456;2023-09-19T03:55:25;19.97;56.87
22917;DHT22;11624;53.250;7.456;2023-09-19T03:57:53;20.01;56.78
22917;DHT22;11624;53.250;7.456;2023-09-19T04:00:21;19.97;56.82
22917;DHT22;11624;53.250;7.456;2023-09-19T04:02:53;19.95;56.76
22917;DHT22;11624;53.250;7.456;2023-09-19T04:05:23;19.87;57.00
22917;DHT22;11624;53.250;7.456;2023-09-19T04:07:51;19.89;56.90
22917;DHT22;11624;53.250;7.456;2023-09-19T04:10:21;19.86;56.62
22917;DHT22;11624;53.250;7.456;2023-09-19T04:12:53;19.86;56.39
22917;DHT22;11624;53.250;7.456;2023-09-19T04:15:23;19.89;56.45
22917;DHT22;11624;53.250;7.456;2023-09-19T04:17:54;19.90;56.19
22917;DHT22;11624;53.250;7.456;2023-09-19T04:20:22;19.83;56.21
22917;DHT22;11624;53.250;7.456;2023-09-19T04:22:51;19.88;55.87
22917;DHT22;11624;53.250;7.456;2023-09-19T04:25:19;19.82;55.87
22917;DHT22;11624;53.250;7.456;2023-09-19T04:27:49;19.89;55.57
22917;DHT22;11624;53.250;7.456;2023-09-19T04:30:17;19.84;55.64
22917;DHT22;11624;53.250;7.456;2023-09-19T04:32:48;19.83;55.48
22917;DHT22;11624;53.250;7.456;2023-09-19T04:35:18;19.91;55.15
22917;DHT22;11624;53.250;7.456;2023-09-19T04:37:47;19.87;55.02
22917;DHT22;11624;53.250;7.456;2023-09-19T04:40:15;19.85;55.00
22917;DHT22;11624;53.250;7.456;2023-09-19T04:42:45;19.84;55.06
22917;DHT22;11624;53.250;7.456;2023-09-19T04:45:16;19.87;54.91
22917;DHT22;11624;53.250;7.456;2023-09-19T04:47:46;19.88;55.04
22917;DHT22;11624;53.250;7.456;2023-09-19T04:50:14;19.86;55.17
22917;DHT22;11624;53.250;7.456;2023-09-19T04:52:44;19.87;55.18
22917;DHT22;11624;53.250;7.456;2023-09-19T04:55:13;19.85;55.27
22917;DHT22;11624;53.250;7.456;2023-09-19T04:57:44;19.84;55.35
22917;DHT22;11624;53.250;7.456;2023-09-19T05:00:13;19.89;55.23
22917;DHT22;11624;53.250;7.456;2023-09-19T05:02:45;19.95;55.06
22917;DHT22;11624;53.250;7.456;2023-09-19T05:05:14;19.91;55.28
22917;DHT22;11624;53.250;7.456;2023-09-19T05:07:44;19.94;55.31
22917;DHT22;11624;53.250;7.456;2023-09-19T05:10:13;19.91;55.45
22917;DHT22;11624;53.250;7.456;2023-09-19T05:12:42;19.91;55.55
22917;DHT22;11624;53.250;7.456;2023-09-19T05:15:13;19.95;55.68
22917;DHT22;11624;53.250;7.456;2023-09-19T05:17:49;20.00;55.33
22917;DHT22;11624;53.250;7.456;2023-09-19T05:20:22;20.06;55.57
22917;DHT22;11624;53.250;7.456;2023-09-19T05:23:00;20.05;55.54
22917;DHT22;11624;53.250;7.456;2023-09-19T05:25:31;20.03;55.93
22917;DHT22;11624;53.250;7.456;2023-09-19T05:28:00;20.11;55.86
22917;DHT22;11624;53.250;7.456;2023-09-19T05:30:30;20.17;55.82
22917;DHT22;11624;53.250;7.456;2023-09-19T05:33:00;20.12;56.00
22917;DHT22;11624;53.250;7.456;2023-09-19T05:35:28;20.15;56.23
22917;DHT22;11624;53.250;7.456;2023-09-19T05:37:57;20.18;56.30
22917;DHT22;11624;53.250;7.456;2023-09-19T05:40:26;20.25;56.32
22917;DHT22;11624;53.250;7.456;2023-09-19T05:42:54;20.29;56.26
22917;DHT22;11624;53.250;7.456;2023-09-19T05:45:22;20.28;56.45
22917;DHT22;11624;53.250;7.456;2023-09-19T05:47:52;20.32;56.39
22917;DHT22;11624;53.250;7.456;2023-09-19T05:50:24;20.29;56.20
22917;DHT22;11624;53.250;7.456;2023-09-19T05:52:54;20.31;56.14
22917;DHT22;11624;53.250;7.456;2023-09-19T05:55:23;20.28;56.24
22917;DHT22;11624;53.250;7.456;2023-09-19T05:57:52;20.28;56.37
22917;DHT22;11624;53.250;7.456;2023-09-19T06:00:21;20.26;56.49
22917;DHT22;11624;53.250;7.456;2023-09-19T06:02:51;20.22;56.57
22917;DHT22;11624;53.250;7.456;2023-09-19T06:05:19;20.28;56.64
22917;DHT22;11624;53.250;7.456;2023-09-19T06:07:49;20.28;56.64
22917;DHT22;11624;53.250;7.456;2023-09-19T06:10:19;20.27;56.64
22917;DHT22;11624;53.250;7.456;2023-09-19T06:12:50;20.30;56.69
22917;DHT22;11624;53.250;7.456;2023-09-19T06:15:18;20.28;56.74
22917;DHT22;11624;53.250;7.456;2023-09-19T06:17:48;20.39;56.55
22917;DHT22;11624;53.250;7.456;2023-09-19T06:20:17;20.40;56.45
22917;DHT22;11624;53.250;7.456;2023-09-19T06:22:47;20.31;56.44
22917;DHT22;11624;53.250;7.456;2023-09-19T06:25:16;20.24;56.71
22917;DHT22;11624;53.250;7.456;2023-09-19T06:27:47;20.37;56.36
22917;DHT22;11624;53.250;7.456;2023-09-19T06:30:15;20.37;56.10
22917;DHT22;11624;53.250;7.456;2023-09-19T06:32:44;20.43;55.94
22917;DHT22;11624;53.250;7.456;2023-09-19T06:35:13;20.49;55.78
22917;DHT22;11624;53.250;7.456;2023-09-19T06:37:42;20.47;55.55
22917;DHT22;11624;53.250;7.456;2023-09-19T06:40:12;20.51;55.39
22917;DHT22;11624;53.250;7.456;2023-09-19T06:42:43;20.61;54.84
22917;DHT22;11624;53.250;7.456;2023-09-19T06:45:12;20.62;54.98
22917;DHT22;11624;53.250;7.456;2023-09-19T06:47:45;20.59;54.78
22917;DHT22;11624;53.250;7.456;2023-09-19T06:50:16;20.63;54.70
22917;DHT22;11624;53.250;7.456;2023-09-19T06:52:46;20.68;54.42
22917;DHT22;11624;53.250;7.456;2023-09-19T06:55:17;20.75;54.30
22917;DHT22;11624;53.250;7.456;2023-09-19T06:57:48;20.88;54.13
22917;DHT22;11624;53.250;7.456;2023-09-19T07:00:17;20.95;53.91
22917;DHT22;11624;53.250;7.456;2023-09-19T07:02:55;20.92;53.39
22917;DHT22;11624;53.250;7.456;2023-09-19T07:05:23;20.95;53.43
22917;DHT22;11624;53.250;7.456;2023-09-19T07:07:51;20.95;53.36
22917;DHT22;11624;53.250;7.456;2023-09-19T07:10:21;20.88;53.39
22917;DHT22;11624;53.250;7.456;2023-09-19T07:12:59;20.83;52.85
22917;DHT22;11624;53.250;7.456;2023-09-19T07:15:28;20.88;53.07
22917;DHT22;11624;53.250;7.456;2023-09-19T07:17:57;20.98;52.85
22917;DHT22;11624;53.250;7.456;2023-09-19T07:20:27;20.79;52.99
22917;DHT22;11624;53.250;7.456;2023-09-19T07:22:59;20.90;52.88
22917;DHT22;11624;53.250;7.456;2023-09-19T07:25:28;21.03;52.40
22917;DHT22;11624;53.250;7.456;2023-09-19T07:27:57;21.08;52.04
22917;DHT22;11624;53.250;7.456;2023-09-19T07:30:29;21.14;51.82
22917;DHT22;11624;53.250;7.456;2023-09-19T07:32:57;21.20;51.37
22917;DHT22;11624;53.250;7.456;2023-09-19T07:35:25;21.18;51.31
22917;DHT22;11624;53.250;7.456;2023-09-19T07:37:53;21.30;51.24
22917;DHT22;11624;53.250;7.456;2023-09-19T07:40:24;21.35;50.86
22917;DHT22;11624;53.250;7.456;2023-09-19T07:42:54;21.52;50.59
22917;DHT22;11624;53.250;7.456;2023-09-19T07:45:22;21.45;50.52
22917;DHT22;11624;53.250;7.456;2023-09-19T07:47:53;21.50;50.37
22917;DHT22;11624;53.250;7.456;2023-09-19T07:50:22;21.65;50.13
22917;DHT22;11624;53.250;7.456;2023-09-19T07:52:50;21.67;50.37
22917;DHT22;11624;53.250;7.456;2023-09-19T07:55:19;21.77;49.88
22917;DHT22;11624;53.250;7.456;2023-09-19T07:57:50;21.81;49.60
22917;DHT22;11624;53.250;7.456;2023-09-19T08:00:18;21.87;49.59
22917;DHT22;11624;53.250;7.456;2023-09-19T08:02:47;21.93;49.65
22917;DHT22;11624;53.250;7.456;2023-09-19T08:05:25;22.03;49.34
22917;DHT22;11624;53.250;7.456;2023-09-19T08:07:54;22.16;49.33
22917;DHT22;11624;53.250;7.456;2023-09-19T08:10:23;22.29;48.68
22917;DHT22;11624;53.250;7.456;2023-09-19T08:12:54;22.23;48.44
22917;DHT22;11624;53.250;7.456;2023-09-19T08:15:25;22.33;48.46
22917;DHT22;11624;53.250;7.456;2023-09-19T08:17:54;22.35;48.27
22917;DHT22;11624;53.250;7.456;2023-09-19T08:20:22;22.35;48.20
22917;DHT22;11624;53.250;7.456;2023-09-19T08:22:53;22.37;48.50
22917;DHT22;11624;53.250;7.456;2023-09-19T08:25:22;22.36;48.15
22917;DHT22;11624;53.250;7.456;2023-09-19T08:27:50;22.20;47.92
22917;DHT22;11624;53.250;7.456;2023-09-19T08:30:20;22.17;48.33
22917;DHT22;11624;53.250;7.456;2023-09-19T08:32:54;22.25;48.81
22917;DHT22;11624;53.250;7.456;2023-09-19T08:35:25;22.24;48.40
22917;DHT22;11624;53.250;7.456;2023-09-19T08:37:54;22.39;48.53
22917;DHT22;11624;53.250;7.456;2023-09-19T08:40:23;22.37;48.23
22917;DHT22;11624;53.250;7.456;2023-09-19T08:42:57;22.50;48.59
22917;DHT22;11624;53.250;7.456;2023-09-19T08:45:25;22.75;48.12
22917;DHT22;11624;53.250;7.456;2023-09-19T08:48:15;22.98;47.48
22917;DHT22;11624;53.250;7.456;2023-09-19T08:50:49;23.27;46.35
22917;DHT22;11624;53.250;7.456;2023-09-19T08:53:25;23.38;45.83
22917;DHT22;11624;53.250;7.456;2023-09-19T08:55:55;23.35;45.81
22917;DHT22;11624;53.250;7.456;2023-09-19T08:58:27;23.37;46.20
22917;DHT22;11624;53.250;7.456;2023-09-19T09:01:00;23.39;46.64
22917;DHT22;11624;53.250;7.456;2023-09-19T09:03:32;23.45;45.43
22917;DHT22;11624;53.250;7.456;2023-09-19T09:06:01;23.36;45.69
22917;DHT22;11624;53.250;7.456;2023-09-19T09:08:32;23.49;45.48
22917;DHT22;11624;53.250;7.456;2023-09-19T09:11:01;23.43;45.12
22917;DHT22;11624;53.250;7.456;2023-09-19T09:13:29;23.28;45.33
22917;DHT22;11624;53.250;7.456;2023-09-19T09:15:58;23.20;45.96
22917;DHT22;11624;53.250;7.456;2023-09-19T09:18:26;23.21;46.60
22917;DHT22;11624;53.250;7.456;2023-09-19T09:20:56;23.41;45.86
22917;DHT22;11624;53.250;7.456;2023-09-19T09:23:26;23.24;46.28
22917;DHT22;11624;53.250;7.456;2023-09-19T09:25:58;23.23;46.27
22917;DHT22;11624;53.250;7.456;2023-09-19T09:28:31;23.43;45.75
22917;DHT22;11624;53.250;7.456;2023-09-19T09:31:00;23.45;45.96
22917;DHT22;11624;53.250;7.456;2023-09-19T09:33:29;23.36;45.61
22917;DHT22;11624;53.250;7.456;2023-09-19T09:35:58;23.42;45.93
22917;DHT22;11624;53.250;7.456;2023-09-19T09:38:28;23.43;46.25
22917;DHT22;11624;53.250;7.456;2023-09-19T09:41:00;23.45;45.90
22917;DHT22;11624;53.250;7.456;2023-09-19T09:43:34;23.24;46.28
22917;DHT22;11624;53.250;7.456;2023-09-19T09:46:11;23.21;46.55
22917;DHT22;11624;53.250;7.456;2023-09-19T09:48:58;23.29;46.15
22917;DHT22;11624;53.250;7.456;2023-09-19T09:51:45;23.50;46.68
22917;DHT22;11624;53.250;7.456;2023-09-19T09:54:25;23.70;45.69
22917;DHT22;11624;53.250;7.456;2023-09-19T09:57:02;23.73;46.00
22917;DHT22;11624;53.250;7.456;2023-09-19T09:59:48;24.02;45.37
22917;DHT22;11624;53.250;7.456;2023-09-19T10:02:18;24.16;45.21
22917;DHT22;11624;53.250;7.456;2023-09-19T10:04:53;24.23;44.75
22917;DHT22;11624;53.250;7.456;2023-09-19T10:07:36;24.39;44.61
22917;DHT22;11624;53.250;7.456;2023-09-19T10:10:11;24.63;43.16
22917;DHT22;11624;53.250;7.456;2023-09-19T10:12:50;24.65;42.88
22917;DHT22;11624;53.250;7.456;2023-09-19T10:15:26;24.59;42.90
22917;DHT22;11624;53.250;7.456;2023-09-19T10:17:57;24.58;43.68
22917;DHT22;11624;53.250;7.456;2023-09-19T10:20:28;24.60;43.80
22917;DHT22;11624;53.250;7.456;2023-09-19T10:23:06;24.83;43.39
22917;DHT22;11624;53.250;7.456;2023-09-19T10:25:40;24.90;42.97
22917;DHT22;11624;53.250;7.456;2023-09-19T10:28:12;25.17;41.87
22917;DHT22;11624;53.250;7.456;2023-09-19T10:30:42;25.37;41.51
22917;DHT22;11624;53.250;7.456;2023-09-19T10:33:13;25.38;41.45
22917;DHT22;11624;53.250;7.456;2023-09-19T10:35:43;25.13;41.89
22917;DHT22;11624;53.250;7.456;2023-09-19T10:38:14;24.90;42.07
22917;DHT22;11624;53.250;7.456;2023-09-19T10:40:48;24.83;43.11
22917;DHT22;11624;53.250;7.456;2023-09-19T10:43:20;24.70;42.23
22917;DHT22;11624;53.250;7.456;2023-09-19T10:45:50;24.82;42.23
22917;DHT22;11624;53.250;7.456;2023-09-19T10:48:20;24.94;41.91
22917;DHT22;11624;53.250;7.456;2023-09-19T10:50:58;25.17;41.74
22917;DHT22;11624;53.250;7.456;2023-09-19T10:53:43;25.46;41.09
22917;DHT22;11624;53.250;7.456;2023-09-19T10:56:19;25.76;39.73
22917;DHT22;11624;53.250;7.456;2023-09-19T10:58:50;25.79;39.42
22917;DHT22;11624;53.250;7.456;2023-09-19T11:01:19;25.94;38.85
22917;DHT22;11624;53.250;7.456;2023-09-19T11:03:48;25.89;39.14
22917;DHT22;11624;53.250;7.456;2023-09-19T11:06:39;26.08;38.27
22917;DHT22;11624;53.250;7.456;2023-09-19T11:09:08;26.13;38.32
22917;DHT22;11624;53.250;7.456;2023-09-19T11:11:50;26.32;38.38
22917;DHT22;11624;53.250;7.456;2023-09-19T11:14:38;26.78;37.23
22917;DHT22;11624;53.250;7.456;2023-09-19T11:17:41;26.77;35.36
22917;DHT22;11624;53.250;7.456;2023-09-19T11:20:20;27.08;35.95
22917;DHT22;11624;53.250;7.456;2023-09-19T11:23:24;27.08;34.74
22917;DHT22;11624;53.250;7.456;2023-09-19T11:25:54;26.85;35.09
22917;DHT22;11624;53.250;7.456;2023-09-19T11:28:29;26.57;35.40
22917;DHT22;11624;53.250;7.456;2023-09-19T11:31:41;26.86;35.78
22917;DHT22;11624;53.250;7.456;2023-09-19T11:34:38;27.15;35.40
22917;DHT22;11624;53.250;7.456;2023-09-19T11:40:12;26.77;35.60
22917;DHT22;11624;53.250;7.456;2023-09-19T11:42:44;26.61;36.72
22917;DHT22;11624;53.250;7.456;2023-09-19T11:48:31;26.80;36.14
22917;DHT22;11624;53.250;7.456;2023-09-19T11:51:00;26.82;35.98
22917;DHT22;11624;53.250;7.456;2023-09-19T11:53:34;26.95;35.44
22917;DHT22;11624;53.250;7.456;2023-09-19T11:56:06;26.65;36.02
22917;DHT22;11624;53.250;7.456;2023-09-19T11:58:38;26.62;36.75
22917;DHT22;11624;53.250;7.456;2023-09-19T12:01:13;26.47;36.79
22917;DHT22;11624;53.250;7.456;2023-09-19T12:03:46;26.48;37.18
22917;DHT22;11624;53.250;7.456;2023-09-19T12:06:15;26.80;37.23
22917;DHT22;11624;53.250;7.456;2023-09-19T12:08:44;27.20;36.56
22917;DHT22;11624;53.250;7.456;2023-09-19T12:11:14;27.29;35.28
22917;DHT22;11624;53.250;7.456;2023-09-19T12:13:47;27.01;36.05
22917;DHT22;11624;53.250;7.456;2023-09-19T12:16:17;26.86;36.37
22917;DHT22;11624;53.250;7.456;2023-09-19T12:18:50;26.48;36.54
22917;DHT22;11624;53.250;7.456;2023-09-19T12:21:22;26.27;37.43
22917;DHT22;11624;53.250;7.456;2023-09-19T12:23:57;26.17;37.33
22917;DHT22;11624;53.250;7.456;2023-09-19T12:26:26;26.07;38.41
22917;DHT22;11624;53.250;7.456;2023-09-19T12:28:56;25.81;38.45
22917;DHT22;11624;53.250;7.456;2023-09-19T12:31:26;25.89;39.10
22917;DHT22;11624;53.250;7.456;2023-09-19T12:33:56;25.82;38.91
22917;DHT22;11624;53.250;7.456;2023-09-19T12:36:26;25.67;39.25
22917;DHT22;11624;53.250;7.456;2023-09-19T12:38:57;25.38;39.49
22917;DHT22;11624;53.250;7.456;2023-09-19T12:41:26;25.48;39.33
22917;DHT22;11624;53.250;7.456;2023-09-19T12:43:55;25.51;39.78
22917;DHT22;11624;53.250;7.456;2023-09-19T12:46:25;25.35;39.68
22917;DHT22;11624;53.250;7.456;2023-09-19T12:49:16;25.24;40.13
22917;DHT22;11624;53.250;7.456;2023-09-19T12:51:46;25.20;40.21
22917;DHT22;11624;53.250;7.456;2023-09-19T12:54:15;25.16;40.42
22917;DHT22;11624;53.250;7.456;2023-09-19T12:56:44;25.05;40.62
22917;DHT22;11624;53.250;7.456;2023-09-19T12:59:16;25.02;40.91
22917;DHT22;11624;53.250;7.456;2023-09-19T13:01:45;25.23;41.04
22917;DHT22;11624;53.250;7.456;2023-09-19T13:04:19;25.27;40.91
22917;DHT22;11624;53.250;7.456;2023-09-19T13:06:53;25.24;40.92
22917;DHT22;11624;53.250;7.456;2023-09-19T13:09:22;25.27;40.96
22917;DHT22;11624;53.250;7.456;2023-09-19T13:11:58;25.06;41.41
22917;DHT22;11624;53.250;7.456;2023-09-19T13:14:30;25.02;41.81
22917;DHT22;11624;53.250;7.456;2023-09-19T13:17:01;24.97;41.81
22917;DHT22;11624;53.250;7.456;2023-09-19T13:19:41;24.89;41.74
22917;DHT22;11624;53.250;7.456;2023-09-19T13:22:39;24.89;42.06
22917;DHT22;11624;53.250;7.456;2023-09-19T13:25:09;24.87;42.23
22917;DHT22;11624;53.250;7.456;2023-09-19T13:27:42;24.99;42.34
22917;DHT22;11624;53.250;7.456;2023-09-19T13:30:12;25.02;42.43
22917;DHT22;11624;53.250;7.456;2023-09-19T13:32:41;25.07;42.45
22917;DHT22;11624;53.250;7.456;2023-09-19T13:35:12;25.06;41.82
22917;DHT22;11624;53.250;7.456;2023-09-19T13:37:41;24.97;42.24
22917;DHT22;11624;53.250;7.456;2023-09-19T13:40:13;24.98;42.56
22917;DHT22;11624;53.250;7.456;2023-09-19T13:42:42;24.88;42.69
22917;DHT22;11624;53.250;7.456;2023-09-19T13:45:11;24.85;42.54
22917;DHT22;11624;53.250;7.456;2023-09-19T13:47:42;24.92;42.75
22917;DHT22;11624;53.250;7.456;2023-09-19T13:50:12;24.95;42.48
22917;DHT22;11624;53.250;7.456;2023-09-19T13:52:41;24.89;42.48
22917;DHT22;11624;53.250;7.456;2023-09-19T13:55:10;24.79;42.73
22917;DHT22;11624;53.250;7.456;2023-09-19T13:57:40;24.88;42.90
22917;DHT22;11624;53.250;7.456;2023-09-19T14:00:11;24.90;42.52
22917;DHT22;11624;53.250;7.456;2023-09-19T14:02:43;24.85;42.36
22917;DHT22;11624;53.250;7.456;2023-09-19T14:05:15;24.74;42.93
22917;DHT22;11624;53.250;7.456;2023-09-19T14:07:44;24.73;43.05
22917;DHT22;11624;53.250;7.456;2023-09-19T14:10:13;24.56;43.51
22917;DHT22;11624;53.250;7.456;2023-09-19T14:12:44;24.53;43.39
22917;DHT22;11624;53.250;7.456;2023-09-19T14:15:13;24.56;43.32
22917;DHT22;11624;53.250;7.456;2023-09-19T14:17:41;24.60;43.64
22917;DHT22;11624;53.250;7.456;2023-09-19T14:20:12;24.50;43.58
22917;DHT22;11624;53.250;7.456;2023-09-19T14:22:42;24.55;43.34
22917;DHT22;11624;53.250;7.456;2023-09-19T14:25:10;24.54;43.51
22917;DHT22;11624;53.250;7.456;2023-09-19T14:27:39;24.53;43.64
22917;DHT22;11624;53.250;7.456;2023-09-19T14:30:09;24.46;43.59
22917;DHT22;11624;53.250;7.456;2023-09-19T14:32:37;24.49;43.61
22917;DHT22;11624;53.250;7.456;2023-09-19T14:35:06;24.58;43.69
22917;DHT22;11624;53.250;7.456;2023-09-19T14:37:36;24.59;43.29
22917;DHT22;11624;53.250;7.456;2023-09-19T14:40:09;24.62;43.34
22917;DHT22;11624;53.250;7.456;2023-09-19T14:42:39;24.62;43.73
22917;DHT22;11624;53.250;7.456;2023-09-19T14:45:08;24.70;43.44
22917;DHT22;11624;53.250;7.456;2023-09-19T14:47:38;24.82;43.23
22917;DHT22;11624;53.250;7.456;2023-09-19T14:50:07;24.98;42.97
22917;DHT22;11624;53.250;7.456;2023-09-19T14:52:35;25.13;42.45
22917;DHT22;11624;53.250;7.456;2023-09-19T14:55:05;25.31;42.04
22917;DHT22;11624;53.250;7.456;2023-09-19T14:57:37;25.24;42.13
22917;DHT22;11624;53.250;7.456;2023-09-19T15:00:07;25.34;42.27
22917;DHT22;11624;53.250;7.456;2023-09-19T15:02:39;25.39;42.00
22917;DHT22;11624;53.250;7.456;2023-09-19T15:05:08;25.38;42.21
22917;DHT22;11624;53.250;7.456;2023-09-19T15:07:38;25.36;42.05
22917;DHT22;11624;53.250;7.456;2023-09-19T15:10:08;25.27;42.28
22917;DHT22;11624;53.250;7.456;2023-09-19T15:12:38;25.28;42.12
22917;DHT22;11624;53.250;7.456;2023-09-19T15:15:07;25.29;42.56
22917;DHT22;11624;53.250;7.456;2023-09-19T15:17:36;25.06;42.85
22917;DHT22;11624;53.250;7.456;2023-09-19T15:20:06;25.09;42.71
22917;DHT22;11624;53.250;7.456;2023-09-19T15:22:35;25.14;42.55
22917;DHT22;11624;53.250;7.456;2023-09-19T15:25:04;25.07;42.68
22917;DHT22;11624;53.250;7.456;2023-09-19T15:27:32;25.10;42.68
22917;DHT22;11624;53.250;7.456;2023-09-19T15:30:06;25.17;42.61
22917;DHT22;11624;53.250;7.456;2023-09-19T15:32:35;25.18;42.75
22917;DHT22;11624;53.250;7.456;2023-09-19T15:35:04;25.16;42.68
22917;DHT22;11624;53.250;7.456;2023-09-19T15:37:32;25.14;42.56
22917;DHT22;11624;53.250;7.456;2023-09-19T15:40:01;25.06;42.92
22917;DHT22;11624;53.250;7.456;2023-09-19T15:42:30;24.95;42.93
22917;DHT22;11624;53.250;7.456;2023-09-19T15:44:59;24.88;43.27
22917;DHT22;11624;53.250;7.456;2023-09-19T15:47:28;24.80;43.19
22917;DHT22;11624;53.250;7.456;2023-09-19T15:49:58;24.90;43.35
22917;DHT22;11624;53.250;7.456;2023-09-19T15:52:26;24.85;43.51
22917;DHT22;11624;53.250;7.456;2023-09-19T15:54:55;24.74;43.68
22917;DHT22;11624;53.250;7.456;2023-09-19T15:57:23;24.76;43.60
22917;DHT22;11624;53.250;7.456;2023-09-19T15:59:52;24.64;44.09
22917;DHT22;11624;53.250;7.456;2023-09-19T16:02:23;24.55;44.54